createdAt,value
2023-01-19T00:00:31.511Z,96.44
2023-01-19T00:03:35.192Z,96.45
2023-01-19T00:06:37.943Z,96.55
2023-01-19T00:09:40.548Z,96.72
2023-01-19T00:12:43.151Z,96.88
2023-01-19T00:15:46.019Z,97.27
2023-01-19T00:18:50.909Z,97.48
2023-01-19T00:21:54.126Z,97.66
2023-01-19T00:24:56.726Z,97.33
2023-01-19T00:28:01.639Z,97.28
2023-01-19T00:31:04.729Z,97.56
2023-01-19T00:34:08.123Z,97.71
2023-01-19T00:37:10.692Z,97.69
2023-01-19T00:40:14.292Z,97.62
2023-01-19T00:43:16.902Z,97.42
2023-01-19T00:46:19.613Z,97.19
2023-01-19T00:49:22.553Z,97.51
2023-01-19T00:52:25.273Z,97.39
2023-01-19T00:55:31.067Z,97.74
2023-01-19T00:58:33.981Z,97.89
2023-01-19T01:01:45.086Z,97.72
2023-01-19T01:04:54.986Z,98.01
2023-01-19T01:07:57.693Z,97.65
2023-01-19T01:11:00.795Z,97.70
2023-01-19T01:14:03.621Z,97.91
2023-01-19T01:17:06.395Z,98.04
2023-01-19T01:20:09.823Z,98.15
2023-01-19T01:23:13.004Z,98.22
2023-01-19T01:26:15.623Z,98.31
2023-01-19T01:29:18.463Z,98.40
2023-01-19T01:32:20.892Z,97.94
2023-01-19T01:35:24.013Z,98.33
2023-01-19T01:38:26.676Z,98.25
2023-01-19T01:41:29.674Z,98.17
2023-01-19T01:44:50.936Z,98.22
2023-01-19T01:47:55.818Z,98.67
2023-01-19T01:51:24.713Z,98.44
2023-01-19T01:54:31.215Z,97.91
2023-01-19T01:57:40.615Z,97.88
2023-01-19T02:01:02.666Z,98.03
2023-01-19T02:04:05.325Z,98.21
2023-01-19T02:07:26.991Z,97.98
2023-01-19T02:10:48.154Z,97.80
2023-01-19T02:13:51.185Z,97.86
2023-01-19T02:16:54.045Z,97.22
2023-01-19T02:19:58.267Z,97.80
2023-01-19T02:23:06.483Z,97.32
2023-01-19T02:26:11.156Z,97.43
2023-01-19T02:29:18.234Z,97.49
2023-01-19T02:32:21.030Z,97.88
2023-01-19T02:35:24.506Z,97.89
2023-01-19T02:38:29.159Z,97.92
2023-01-19T02:41:37.882Z,97.97
2023-01-19T02:44:44.026Z,97.99
2023-01-19T02:47:49.525Z,97.79
2023-01-19T02:51:04.939Z,97.75
2023-01-19T02:54:41.415Z,97.98
2023-01-19T02:58:05.302Z,97.77
2023-01-19T03:01:26.186Z,97.81
2023-01-19T03:04:53.853Z,97.71
2023-01-19T03:08:16.020Z,97.58
2023-01-19T03:11:19.095Z,97.99
2023-01-19T03:14:26.919Z,97.97
2023-01-19T03:17:33.086Z,97.85
2023-01-19T03:20:36.756Z,98.25
2023-01-19T03:23:42.769Z,98.35
2023-01-19T03:26:52.228Z,98.42
2023-01-19T03:30:06.468Z,98.47
2023-01-19T03:33:13.081Z,98.72
2023-01-19T03:36:48.113Z,98.31
2023-01-19T03:39:50.643Z,97.90
2023-01-19T03:42:54.011Z,97.59
2023-01-19T03:45:57.591Z,97.71
2023-01-19T03:49:00.808Z,97.72
2023-01-19T03:52:03.802Z,97.43
2023-01-19T03:55:06.953Z,97.30
2023-01-19T03:58:10.215Z,97.75
2023-01-19T04:01:15.213Z,97.59
2023-01-19T04:04:17.796Z,97.81
2023-01-19T04:07:20.772Z,97.78
2023-01-19T04:10:23.681Z,97.46
2023-01-19T04:13:29.229Z,97.34
2023-01-19T04:16:31.978Z,97.40
2023-01-19T04:19:34.681Z,97.38
2023-01-19T04:22:39.194Z,97.53
2023-01-19T04:25:41.942Z,97.20
2023-01-19T04:28:44.797Z,97.24
2023-01-19T04:31:48.116Z,97.59
2023-01-19T04:34:50.735Z,97.72
2023-01-19T04:37:53.527Z,97.42
2023-01-19T04:40:56.232Z,97.82
2023-01-19T04:43:59.192Z,97.74
2023-01-19T04:47:02.836Z,97.61
2023-01-19T04:50:07.380Z,97.68
2023-01-19T04:53:10.085Z,97.71
2023-01-19T04:56:12.863Z,97.80
2023-01-19T04:59:15.782Z,97.73
2023-01-19T05:02:18.915Z,97.62
2023-01-19T05:05:22.136Z,97.52
2023-01-19T05:08:25.150Z,97.80
2023-01-19T05:11:27.663Z,97.55
2023-01-19T05:14:31.348Z,97.57
2023-01-19T05:17:34.510Z,98.05
2023-01-19T05:20:37.076Z,98.16
2023-01-19T05:23:39.992Z,97.84
2023-01-19T05:26:43.736Z,98.03
2023-01-19T05:29:46.387Z,97.96
2023-01-19T05:32:49.463Z,97.53
2023-01-19T05:35:53.185Z,97.95
2023-01-19T05:38:56.520Z,97.94
2023-01-19T05:41:58.952Z,98.46
2023-01-19T05:45:01.832Z,98.71
2023-01-19T05:48:05.341Z,98.96
2023-01-19T05:51:08.860Z,98.74
2023-01-19T05:54:14.174Z,98.69
2023-01-19T05:57:17.289Z,98.80
2023-01-19T06:00:20.099Z,99.00
2023-01-19T06:03:22.906Z,99.02
2023-01-19T06:06:25.424Z,98.62
2023-01-19T06:09:29.307Z,98.33
2023-01-19T06:12:32.584Z,98.90
2023-01-19T06:15:35.404Z,98.59
2023-01-19T06:18:37.960Z,98.36
2023-01-19T06:21:40.900Z,98.32
2023-01-19T06:24:43.343Z,98.43
2023-01-19T06:27:46.353Z,98.63
2023-01-19T06:30:50.352Z,98.73
2023-01-19T06:33:53.021Z,98.63
2023-01-19T06:36:56.470Z,98.36
2023-01-19T06:39:59.159Z,98.18
2023-01-19T06:43:02.026Z,98.28
2023-01-19T06:46:04.911Z,97.97
2023-01-19T06:49:08.264Z,97.65
2023-01-19T06:52:12.357Z,97.50
2023-01-19T06:55:16.309Z,97.79
2023-01-19T06:58:19.015Z,97.39
2023-01-19T07:01:21.559Z,97.57
2023-01-19T07:04:25.101Z,97.59
2023-01-19T07:07:27.981Z,97.57
2023-01-19T07:11:24.857Z,97.52
2023-01-19T07:13:55.759Z,97.48
2023-01-19T07:16:58.505Z,97.33
2023-01-19T07:20:01.053Z,97.84
2023-01-19T07:23:04.256Z,98.07
2023-01-19T07:26:07.079Z,98.02
2023-01-19T07:29:09.619Z,97.83
2023-01-19T07:32:13.107Z,98.05
2023-01-19T07:35:16.006Z,97.82
2023-01-19T07:38:19.004Z,97.66
2023-01-19T07:41:21.790Z,97.79
2023-01-19T07:44:24.714Z,97.55
2023-01-19T07:47:27.197Z,97.29
2023-01-19T07:50:30.051Z,97.14
2023-01-19T07:53:32.910Z,96.76
2023-01-19T07:56:35.771Z,96.63
2023-01-19T07:59:38.971Z,96.72
2023-01-19T08:02:42.191Z,96.88
2023-01-19T08:05:45.764Z,96.77
2023-01-19T08:08:48.916Z,96.45
2023-01-19T08:11:51.701Z,96.67
2023-01-19T08:14:54.450Z,96.59
2023-01-19T08:18:05.827Z,96.65
2023-01-19T08:21:08.688Z,96.63
2023-01-19T08:24:18.882Z,96.60
2023-01-19T08:27:21.857Z,96.52
2023-01-19T08:30:26.917Z,96.30
2023-01-19T08:33:29.555Z,96.39
2023-01-19T08:36:32.289Z,96.67
2023-01-19T08:39:34.902Z,96.87
2023-01-19T08:42:37.518Z,96.59
2023-01-19T08:45:46.715Z,96.14
2023-01-19T08:48:50.406Z,96.21
2023-01-19T08:51:53.306Z,96.09
2023-01-19T08:54:56.200Z,95.98
2023-01-19T08:58:00.751Z,95.77
2023-01-19T09:01:04.353Z,95.97
2023-01-19T09:04:07.211Z,96.16
2023-01-19T09:07:09.963Z,96.15
2023-01-19T09:10:12.892Z,95.82
2023-01-19T09:13:17.321Z,95.85
2023-01-19T09:16:20.114Z,95.43
2023-01-19T09:19:22.993Z,95.81
2023-01-19T09:22:25.776Z,95.27
2023-01-19T09:25:28.529Z,95.21
2023-01-19T09:28:31.357Z,95.40
2023-01-19T09:31:34.111Z,95.42
2023-01-19T09:34:37.190Z,95.21
2023-01-19T09:37:40.262Z,95.38
2023-01-19T09:41:04.599Z,96.03
2023-01-19T09:44:13.242Z,95.95
2023-01-19T09:47:20.693Z,95.97
2023-01-19T09:50:36.630Z,95.86
2023-01-19T09:54:16.328Z,95.54
2023-01-19T09:57:20.543Z,95.29
2023-01-19T10:00:24.445Z,95.16
2023-01-19T10:03:27.099Z,95.31
2023-01-19T10:06:36.567Z,95.31
2023-01-19T10:10:09.464Z,95.09
2023-01-19T10:13:30.967Z,94.82
2023-01-19T10:16:45.998Z,95.06
2023-01-19T10:19:53.820Z,94.97
2023-01-19T10:22:59.873Z,94.82
2023-01-19T10:26:08.869Z,94.76
2023-01-19T10:29:46.810Z,95.12
2023-01-19T10:32:49.997Z,95.07
2023-01-19T10:35:52.837Z,94.89
2023-01-19T10:38:55.733Z,94.54
2023-01-19T10:42:00.797Z,94.74
2023-01-19T10:45:04.942Z,94.88
2023-01-19T10:48:08.045Z,95.13
2023-01-19T10:51:11.627Z,94.99
2023-01-19T10:54:14.338Z,94.84
2023-01-19T10:57:28.617Z,94.89
2023-01-19T11:00:42.425Z,94.75
2023-01-19T11:03:45.695Z,95.19
2023-01-19T11:06:48.517Z,95.16
2023-01-19T11:10:21.289Z,95.42
2023-01-19T11:13:23.957Z,95.01
2023-01-19T11:16:30.267Z,95.11
2023-01-19T11:19:33.852Z,94.87
2023-01-19T11:22:36.469Z,95.15
2023-01-19T11:25:39.040Z,95.75
2023-01-19T11:28:47.935Z,95.86
2023-01-19T11:31:51.921Z,95.30
2023-01-19T11:34:54.778Z,95.60
2023-01-19T11:38:07.576Z,95.06
2023-01-19T11:41:34.797Z,94.95
2023-01-19T11:44:44.349Z,95.04
2023-01-19T11:47:52.681Z,95.44
2023-01-19T11:50:57.395Z,95.34
2023-01-19T11:54:08.549Z,95.12
2023-01-19T11:57:15.262Z,94.34
2023-01-19T12:00:25.193Z,94.16
2023-01-19T12:03:30.845Z,94.41
2023-01-19T12:06:36.944Z,94.47
2023-01-19T12:09:46.065Z,94.06
2023-01-19T12:12:49.289Z,94.17
2023-01-19T12:15:58.375Z,94.18
2023-01-19T12:19:06.383Z,94.80
2023-01-19T12:22:15.669Z,95.24
2023-01-19T12:25:24.923Z,95.30
2023-01-19T12:28:34.218Z,95.23
2023-01-19T12:31:38.250Z,94.38
2023-01-19T12:34:46.810Z,94.51
2023-01-19T12:37:49.378Z,94.39
2023-01-19T12:41:15.960Z,94.93
2023-01-19T12:44:25.204Z,94.53
2023-01-19T12:47:27.785Z,95.25
2023-01-19T12:50:38.074Z,94.63
2023-01-19T12:53:57.973Z,95.25
2023-01-19T12:57:06.242Z,95.34
2023-01-19T13:00:30.538Z,95.70
2023-01-19T13:03:33.451Z,95.48
2023-01-19T13:06:48.161Z,95.39
2023-01-19T13:09:50.609Z,95.85
2023-01-19T13:13:24.077Z,95.69
2023-01-19T13:16:27.742Z,95.34
2023-01-19T13:19:42.959Z,95.74
2023-01-19T13:22:52.983Z,96.13
2023-01-19T13:26:06.777Z,96.23
2023-01-19T13:29:35.250Z,96.30
2023-01-19T13:32:42.362Z,96.78
2023-01-19T14:18:36.315Z,98.62
2023-01-19T14:21:42.574Z,98.79
2023-01-19T14:24:45.334Z,98.53
2023-01-19T14:27:47.808Z,98.44
2023-01-19T14:31:05.644Z,98.28
2023-01-19T14:34:37.277Z,98.42
2023-01-19T14:37:47.841Z,98.43
2023-01-19T14:40:50.489Z,98.60
2023-01-19T14:43:56.342Z,98.42
2023-01-19T14:46:59.762Z,98.18
2023-01-19T14:50:17.048Z,97.81
2023-01-19T14:53:24.469Z,98.33
2023-01-19T14:56:32.247Z,98.03
2023-01-19T14:59:34.802Z,97.20
2023-01-19T15:02:37.931Z,97.40
2023-01-19T15:05:43.743Z,97.42
2023-01-19T15:08:47.329Z,96.97
2023-01-19T15:11:52.223Z,97.29
2023-01-19T15:14:55.588Z,97.00
2023-01-19T15:18:00.817Z,97.42
2023-01-19T15:21:03.807Z,97.99
2023-01-19T15:24:06.519Z,97.28
2023-01-19T15:27:11.911Z,97.63
2023-01-19T15:30:33.571Z,97.51
2023-01-19T15:33:36.421Z,97.63
2023-01-19T15:36:39.030Z,97.92
2023-01-19T15:39:41.817Z,97.91
2023-01-19T15:42:44.364Z,97.07
2023-01-19T15:45:51.645Z,96.93
2023-01-19T15:48:54.593Z,96.92
2023-01-19T15:51:57.474Z,97.40
2023-01-19T15:54:59.825Z,97.42
2023-01-19T15:58:02.753Z,97.12
2023-01-19T16:01:05.516Z,96.97
2023-01-19T16:04:11.188Z,97.90
2023-01-19T16:07:13.758Z,98.04
2023-01-19T16:10:17.654Z,97.69
2023-01-19T16:13:20.133Z,97.73
2023-01-19T16:16:24.583Z,97.29
2023-01-19T16:19:27.226Z,97.23
2023-01-19T16:22:30.077Z,97.24
2023-01-19T16:25:32.703Z,97.21
2023-01-19T16:28:36.937Z,97.58
2023-01-19T16:31:42.247Z,97.85
2023-01-19T16:34:45.196Z,97.42
2023-01-19T16:37:51.280Z,97.64
2023-01-19T16:40:53.996Z,97.20
2023-01-19T16:43:57.988Z,97.65
2023-01-19T16:47:00.753Z,97.23
2023-01-19T16:50:03.615Z,96.72
2023-01-19T16:53:06.723Z,96.84
2023-01-19T16:56:13.275Z,96.90
2023-01-19T16:59:17.716Z,96.85
2023-01-19T17:02:20.485Z,96.80
2023-01-19T17:05:24.318Z,96.37
2023-01-19T17:08:26.984Z,96.95
2023-01-19T17:11:31.560Z,96.93
2023-01-19T17:14:34.131Z,96.82
2023-01-19T17:17:36.876Z,96.68
2023-01-19T17:20:39.587Z,96.67
2023-01-19T17:23:43.411Z,97.00
2023-01-19T17:26:48.668Z,97.31
2023-01-19T17:29:52.432Z,96.93
2023-01-19T17:32:54.890Z,96.78
2023-01-19T17:36:06.506Z,96.41
2023-01-19T17:39:14.740Z,96.62
2023-01-19T17:42:17.903Z,95.86
2023-01-19T17:45:20.640Z,96.18
2023-01-19T17:48:23.795Z,95.88
2023-01-19T17:51:28.156Z,95.55
2023-01-19T17:54:30.946Z,95.74
2023-01-19T17:57:33.636Z,95.64
2023-01-19T18:00:36.724Z,95.42
2023-01-19T18:03:39.779Z,95.44
2023-01-19T18:06:42.728Z,95.25
2023-01-19T18:09:45.893Z,95.42
2023-01-19T18:12:48.691Z,95.11
2023-01-19T18:15:52.191Z,94.73
2023-01-19T18:18:56.044Z,94.36
2023-01-19T18:21:59.265Z,94.65
2023-01-19T18:25:02.565Z,95.05
2023-01-19T18:28:06.482Z,94.15
2023-01-19T18:31:11.485Z,95.33
2023-01-19T18:34:14.432Z,95.81
2023-01-19T18:37:17.363Z,96.15
2023-01-19T18:40:20.692Z,95.70
2023-01-19T18:43:23.765Z,95.75
2023-01-19T18:46:27.504Z,95.92
2023-01-19T18:49:30.692Z,96.51
2023-01-19T18:52:34.715Z,96.17
2023-01-19T18:55:37.820Z,96.35
2023-01-19T18:58:40.940Z,97.04
2023-01-19T19:01:44.160Z,96.80
2023-01-19T19:04:46.881Z,97.00
2023-01-19T19:07:49.529Z,96.45
2023-01-19T19:10:52.247Z,96.21
2023-01-19T19:14:01.283Z,96.06
2023-01-19T19:17:04.188Z,96.34
2023-01-19T19:20:07.443Z,96.51
2023-01-19T19:23:11.595Z,96.76
2023-01-19T19:26:14.835Z,96.77
2023-01-19T19:29:17.593Z,96.58
2023-01-19T19:32:22.236Z,96.74
2023-01-19T19:35:25.969Z,96.79
2023-01-19T19:38:29.940Z,96.37
2023-01-19T19:41:32.720Z,96.29
2023-01-19T19:44:35.697Z,95.99
2023-01-19T19:47:38.317Z,95.72
2023-01-19T19:50:41.157Z,96.11
2023-01-19T19:53:45.094Z,95.58
2023-01-19T19:56:50.555Z,95.75
2023-01-19T19:59:53.557Z,95.66
2023-01-19T20:02:56.582Z,95.71
2023-01-19T20:06:07.878Z,95.56
2023-01-19T20:09:14.975Z,95.74
2023-01-19T20:12:17.713Z,96.30
2023-01-19T20:15:20.752Z,96.11
2023-01-19T20:18:24.033Z,95.88
2023-01-19T20:21:29.189Z,96.16
2023-01-19T20:24:32.557Z,97.22
2023-01-19T20:27:35.813Z,97.37
2023-01-19T20:30:38.932Z,97.10
2023-01-19T20:33:42.027Z,96.54
2023-01-19T20:36:49.600Z,96.84
2023-01-19T20:39:52.523Z,96.96
2023-01-19T20:42:55.350Z,97.54
2023-01-19T20:45:58.583Z,97.94
2023-01-19T20:49:01.700Z,97.95
2023-01-19T20:52:04.609Z,97.86
2023-01-19T20:55:08.893Z,97.37
2023-01-19T20:58:11.815Z,97.38
2023-01-19T21:01:16.789Z,97.87
2023-01-19T21:04:23.348Z,98.04
2023-01-19T21:07:25.878Z,97.93
2023-01-19T21:10:29.841Z,97.83
2023-01-19T21:13:32.894Z,97.85
2023-01-19T21:16:36.599Z,97.83
2023-01-19T21:19:39.578Z,97.46
2023-01-19T21:22:43.109Z,97.27
2023-01-19T21:25:50.923Z,97.02
2023-01-19T21:28:53.844Z,96.90
2023-01-19T21:31:56.809Z,96.58
2023-01-19T21:34:59.469Z,96.80
2023-01-19T21:38:01.920Z,96.73
2023-01-19T21:41:07.716Z,97.05
2023-01-19T21:44:12.424Z,97.38
2023-01-19T21:47:15.512Z,97.39
2023-01-19T21:50:19.547Z,97.37
2023-01-19T21:53:22.151Z,97.04
2023-01-19T21:56:25.225Z,97.21
2023-01-19T21:59:28.407Z,96.99
2023-01-19T22:02:38.553Z,96.65
2023-01-19T22:05:41.705Z,96.59
2023-01-19T22:08:46.497Z,96.76
2023-01-19T22:11:49.883Z,97.14
2023-01-19T22:14:52.673Z,97.58
2023-01-19T22:17:55.684Z,97.14
2023-01-19T22:21:10.467Z,97.35
2023-01-19T22:24:13.213Z,97.76
2023-01-19T22:27:16.165Z,98.04
2023-01-19T22:30:19.381Z,98.21
2023-01-19T22:33:22.215Z,97.91
2023-01-19T22:36:27.308Z,98.52
2023-01-19T22:39:29.877Z,98.58
2023-01-19T22:42:32.609Z,98.67
2023-01-19T22:45:35.056Z,98.44
2023-01-19T22:48:38.374Z,98.14
2023-01-19T22:51:41.285Z,97.86
2023-01-19T22:54:43.932Z,97.73
2023-01-19T22:57:46.765Z,97.55
2023-01-19T23:00:49.407Z,97.72
2023-01-19T23:03:53.193Z,97.98
2023-01-19T23:06:55.748Z,98.19
2023-01-19T23:09:58.400Z,98.18
2023-01-19T23:13:01.153Z,97.69
2023-01-19T23:16:05.170Z,97.64
2023-01-19T23:19:07.922Z,97.38
2023-01-19T23:22:11.149Z,97.51
2023-01-19T23:25:13.935Z,97.27
2023-01-19T23:28:17.001Z,97.87
2023-01-19T23:31:28.716Z,98.07
2023-01-19T23:34:31.519Z,97.90
2023-01-19T23:37:34.406Z,98.04
2023-01-19T23:40:38.358Z,98.06
2023-01-19T23:43:41.567Z,97.67
2023-01-19T23:46:44.356Z,97.39
2023-01-19T23:49:47.361Z,96.91
2023-01-19T23:52:50.142Z,97.01
2023-01-19T23:55:52.793Z,97.51
2023-01-19T23:59:00.099Z,97.21
